createdAt,value
2023-05-13T00:02:36.971Z,10.62
2023-05-13T00:08:08.234Z,10.52
2023-05-13T00:13:34.560Z,10.42
2023-05-13T00:19:12.578Z,10.34
2023-05-13T00:24:50.701Z,10.30
2023-05-13T00:30:28.109Z,10.24
2023-05-13T00:35:55.451Z,10.20
2023-05-13T00:41:23.912Z,10.12
2023-05-13T00:46:56.831Z,10.01
2023-05-13T00:53:04.725Z,9.91
2023-05-13T00:59:35.307Z,9.86
2023-05-13T01:06:33.533Z,9.79
2023-05-13T01:12:28.121Z,9.69
2023-05-13T01:18:37.751Z,9.59
2023-05-13T01:24:10.680Z,9.50
2023-05-13T01:29:39.051Z,9.49
2023-05-13T01:35:05.290Z,9.45
2023-05-13T01:40:33.239Z,9.34
2023-05-13T01:46:15.727Z,9.15
2023-05-13T01:51:41.815Z,8.97
2023-05-13T01:57:07.227Z,8.79
2023-05-13T02:02:41.111Z,8.62
2023-05-13T02:08:08.047Z,8.51
2023-05-13T02:13:41.396Z,8.42
2023-05-13T02:19:10.038Z,8.41
2023-05-13T02:24:40.683Z,8.43
2023-05-13T02:30:11.762Z,8.52
2023-05-13T02:35:39.838Z,8.54
2023-05-13T02:41:26.674Z,8.61
2023-05-13T02:47:11.497Z,8.61
2023-05-13T02:52:52.174Z,8.49
2023-05-13T02:58:20.106Z,8.39
2023-05-13T03:03:51.870Z,8.25
2023-05-13T03:09:26.164Z,8.03
2023-05-13T03:15:22.611Z,7.89
2023-05-13T03:21:13.467Z,7.69
2023-05-13T03:26:51.770Z,7.60
2023-05-13T03:32:32.354Z,7.54
2023-05-13T03:37:59.264Z,7.51
2023-05-13T03:43:38.195Z,7.60
2023-05-13T03:49:09.065Z,7.78
2023-05-13T03:54:40.000Z,7.96
2023-05-13T04:00:28.321Z,8.10
2023-05-13T04:05:56.947Z,8.35
2023-05-13T04:11:25.122Z,8.71
2023-05-13T04:16:52.321Z,9.07
2023-05-13T04:22:29.372Z,9.39
2023-05-13T04:27:54.142Z,9.78
2023-05-13T04:33:31.714Z,9.94
2023-05-13T04:39:17.114Z,9.89
2023-05-13T04:44:45.808Z,10.10
2023-05-13T04:50:15.291Z,10.41
2023-05-13T04:55:46.031Z,10.59
2023-05-13T05:01:13.246Z,10.78
2023-05-13T05:06:38.882Z,10.92
2023-05-13T05:12:05.051Z,11.04
2023-05-13T05:17:44.646Z,11.28
2023-05-13T05:23:12.148Z,11.48
2023-05-13T05:28:52.506Z,11.56
2023-05-13T05:34:27.638Z,11.72
2023-05-13T05:39:53.050Z,11.83
2023-05-13T05:45:21.591Z,12.02
2023-05-13T05:50:46.650Z,12.13
2023-05-13T05:56:21.356Z,12.18
2023-05-13T06:01:46.446Z,12.26
2023-05-13T06:07:15.742Z,12.40
2023-05-13T06:12:59.227Z,12.61
2023-05-13T06:18:44.287Z,12.78
2023-05-13T06:24:11.940Z,12.86
2023-05-13T06:29:38.885Z,12.89
2023-05-13T06:35:03.875Z,12.90
2023-05-13T06:40:35.622Z,12.99
2023-05-13T06:46:02.457Z,13.10
2023-05-13T06:52:01.497Z,13.30
2023-05-13T06:57:47.548Z,13.40
2023-05-13T07:03:14.904Z,13.64
2023-05-13T07:08:50.943Z,13.90
2023-05-13T07:14:25.514Z,14.07
2023-05-13T07:20:02.832Z,14.29
2023-05-13T07:26:24.063Z,14.53
2023-05-13T07:32:43.100Z,14.65
2023-05-13T07:38:51.615Z,14.81
2023-05-13T07:44:25.439Z,15.02
2023-05-13T07:50:01.661Z,15.18
2023-05-13T07:55:29.089Z,15.28
2023-05-13T08:00:55.457Z,15.25
2023-05-13T08:06:23.313Z,15.33
2023-05-13T08:11:51.242Z,15.59
2023-05-13T08:17:25.642Z,15.86
2023-05-13T08:22:50.476Z,16.11
2023-05-13T08:28:18.568Z,16.33
2023-05-13T08:33:47.911Z,16.42
2023-05-13T08:39:12.265Z,16.64
2023-05-13T08:44:45.102Z,16.73
2023-05-13T08:50:12.665Z,16.64
2023-05-13T08:55:43.420Z,16.65
2023-05-13T09:01:10.779Z,16.73
2023-05-13T09:06:41.498Z,16.86
2023-05-13T09:12:06.437Z,16.95
2023-05-13T09:17:39.719Z,16.87
2023-05-13T09:23:11.901Z,16.47
2023-05-13T09:28:37.482Z,16.46
2023-05-13T09:34:06.051Z,16.99
2023-05-13T09:39:40.474Z,17.51
2023-05-13T09:45:16.092Z,17.79
2023-05-13T09:50:54.137Z,18.03
2023-05-13T09:56:24.371Z,18.02
2023-05-13T10:01:54.032Z,18.40
2023-05-13T10:07:26.924Z,18.28
2023-05-13T10:13:15.640Z,17.93
2023-05-13T10:18:46.970Z,17.82
2023-05-13T10:24:38.567Z,18.01
2023-05-13T10:30:39.493Z,18.28
2023-05-13T10:36:27.321Z,18.61
2023-05-13T10:42:31.865Z,18.84
2023-05-13T10:48:07.549Z,18.85
2023-05-13T10:53:36.799Z,18.86
2023-05-13T10:59:05.767Z,18.87
2023-05-13T11:04:30.673Z,18.76
2023-05-13T11:09:55.705Z,18.84
2023-05-13T11:15:24.980Z,18.98
2023-05-13T11:21:10.412Z,19.28
2023-05-13T11:26:59.576Z,19.89
2023-05-13T11:33:15.684Z,20.54
2023-05-13T11:39:28.632Z,21.13
2023-05-13T11:44:58.099Z,21.32
2023-05-13T11:50:35.360Z,21.07
2023-05-13T11:56:22.849Z,21.01
2023-05-13T12:02:01.659Z,21.29
2023-05-13T12:07:39.066Z,21.42
2023-05-13T12:13:04.226Z,21.52
2023-05-13T12:18:34.026Z,21.73
2023-05-13T12:24:22.040Z,21.78
2023-05-13T12:30:28.895Z,21.89
2023-05-13T12:36:13.303Z,22.17
2023-05-13T12:41:44.696Z,22.40
2023-05-13T12:47:28.564Z,22.34
2023-05-13T12:52:58.041Z,22.72
2023-05-13T12:58:50.385Z,23.13
2023-05-13T13:04:32.893Z,23.53
2023-05-13T13:10:02.211Z,23.90
2023-05-13T13:15:44.650Z,24.15
2023-05-13T13:21:14.943Z,24.26
2023-05-13T13:26:50.880Z,24.32
2023-05-13T13:32:18.598Z,24.39
2023-05-13T13:37:43.524Z,24.21
2023-05-13T13:43:10.809Z,24.03
2023-05-13T13:48:49.265Z,23.93
2023-05-13T13:54:39.558Z,24.17
2023-05-13T14:00:49.683Z,24.10
2023-05-13T14:06:56.597Z,23.93
2023-05-13T14:12:53.709Z,23.29
2023-05-13T14:18:18.789Z,23.07
2023-05-13T14:23:43.742Z,23.04
2023-05-13T14:29:08.450Z,22.96
2023-05-13T14:34:33.681Z,22.79
2023-05-13T14:39:58.650Z,22.65
2023-05-13T14:45:24.216Z,22.52
2023-05-13T14:51:08.707Z,22.47
2023-05-13T14:56:32.896Z,22.49
2023-05-13T15:01:57.537Z,22.41
2023-05-13T15:07:29.110Z,22.35
2023-05-13T15:12:59.981Z,22.24
2023-05-13T15:18:25.864Z,22.08
2023-05-13T15:23:59.022Z,22.12
2023-05-13T15:29:23.450Z,22.12
2023-05-13T15:34:48.371Z,22.09
2023-05-13T15:40:51.885Z,21.94
2023-05-13T15:46:26.643Z,21.74
2023-05-13T15:51:54.856Z,21.50
2023-05-13T15:57:31.265Z,21.59
2023-05-13T16:02:58.600Z,21.48
2023-05-13T16:08:23.069Z,21.36
2023-05-13T16:13:47.861Z,21.09
2023-05-13T16:19:16.078Z,21.06
2023-05-13T16:24:50.916Z,20.84
2023-05-13T16:30:17.675Z,20.63
2023-05-13T16:35:55.178Z,20.26
2023-05-13T16:41:19.839Z,19.92
2023-05-13T16:46:44.876Z,19.55
2023-05-13T16:52:22.596Z,19.26
2023-05-13T16:57:58.829Z,19.04
2023-05-13T17:03:56.166Z,18.82
2023-05-13T17:09:28.319Z,18.55
2023-05-13T17:14:59.208Z,18.40
2023-05-13T17:20:24.095Z,18.37
2023-05-13T17:26:00.767Z,18.22
2023-05-13T17:31:49.334Z,18.23
2023-05-13T17:37:22.420Z,18.16
2023-05-13T17:42:47.461Z,18.17
2023-05-13T17:48:12.725Z,18.24
2023-05-13T17:53:37.671Z,18.11
2023-05-13T17:59:06.319Z,18.01
2023-05-13T18:04:32.868Z,17.90
2023-05-13T18:10:06.543Z,17.80
2023-05-13T18:15:31.895Z,17.68
2023-05-13T18:20:58.836Z,17.60
2023-05-13T18:26:23.623Z,17.54
2023-05-13T18:31:48.428Z,17.47
2023-05-13T18:37:16.725Z,17.35
2023-05-13T18:42:41.422Z,17.25
2023-05-13T18:48:06.691Z,17.18
2023-05-13T18:53:31.461Z,17.11
2023-05-13T18:58:56.139Z,17.03
2023-05-13T19:04:21.843Z,16.92
2023-05-13T19:10:10.904Z,16.79
2023-05-13T19:15:35.833Z,16.59
2023-05-13T19:21:03.107Z,16.45
2023-05-13T19:26:27.335Z,16.42
2023-05-13T19:31:52.857Z,16.37
2023-05-13T19:37:20.608Z,16.28
2023-05-13T19:42:45.815Z,16.20
2023-05-13T19:48:30.704Z,16.11
2023-05-13T19:54:09.927Z,16.00
2023-05-13T19:59:52.191Z,15.88
2023-05-13T20:05:19.519Z,15.70
2023-05-13T20:10:45.372Z,15.52
2023-05-13T20:16:10.425Z,15.35
2023-05-13T20:21:34.895Z,15.13
2023-05-13T20:27:01.863Z,14.98
2023-05-13T20:32:26.283Z,14.82
2023-05-13T20:37:50.764Z,14.60
2023-05-13T20:43:17.563Z,14.45
2023-05-13T20:48:42.290Z,14.36
2023-05-13T20:54:14.167Z,14.20
2023-05-13T20:59:38.847Z,14.03
2023-05-13T21:05:04.085Z,13.88
2023-05-13T21:10:28.440Z,13.75
2023-05-13T21:15:53.576Z,13.66
2023-05-13T21:21:19.964Z,13.60
2023-05-13T21:26:50.080Z,13.52
2023-05-13T21:32:15.484Z,13.42
2023-05-13T21:37:41.185Z,13.33
2023-05-13T21:43:09.241Z,13.23
2023-05-13T21:48:34.689Z,13.07
2023-05-13T21:53:59.951Z,12.92
2023-05-13T21:59:26.628Z,12.76
2023-05-13T22:04:51.499Z,12.61
2023-05-13T22:10:27.380Z,12.50
2023-05-13T22:15:55.600Z,12.39
2023-05-13T22:21:20.875Z,12.30
2023-05-13T22:26:46.769Z,12.21
2023-05-13T22:32:11.740Z,12.08
2023-05-13T22:37:42.784Z,12.00
2023-05-13T22:43:07.259Z,11.94
2023-05-13T22:48:32.223Z,11.88
2023-05-13T22:53:57.291Z,11.84
2023-05-13T22:59:23.634Z,11.79
2023-05-13T23:04:47.790Z,11.69
2023-05-13T23:10:12.257Z,11.55
2023-05-13T23:15:40.009Z,11.42
2023-05-13T23:21:04.953Z,11.30
2023-05-13T23:26:30.182Z,11.21
2023-05-13T23:31:58.764Z,11.02
2023-05-13T23:37:22.989Z,10.83
2023-05-13T23:42:47.774Z,10.70
2023-05-13T23:48:21.725Z,10.63
2023-05-13T23:53:50.079Z,10.55
2023-05-13T23:59:39.048Z,10.47
